createdAt,value
2023-04-26T00:00:49.880Z,99685.84
2023-04-26T00:03:52.860Z,99688.16
2023-04-26T00:06:55.718Z,99689.31
2023-04-26T00:09:58.281Z,99687.97
2023-04-26T00:13:00.629Z,99696.09
2023-04-26T00:16:03.825Z,99700.19
2023-04-26T00:19:06.183Z,99699.22
2023-04-26T00:22:08.980Z,99703.00
2023-04-26T00:25:11.341Z,99705.31
2023-04-26T00:28:14.023Z,99709.94
2023-04-26T00:31:17.613Z,99706.97
2023-04-26T00:34:20.253Z,99713.75
2023-04-26T00:37:23.370Z,99719.69
2023-04-26T00:40:26.237Z,99723.31
2023-04-26T00:43:28.877Z,99722.50
2023-04-26T00:46:31.621Z,99719.84
2023-04-26T00:49:34.391Z,99730.75
2023-04-26T00:52:37.126Z,99724.66
2023-04-26T00:55:39.549Z,99731.94
2023-04-26T00:58:42.293Z,99727.00
2023-04-26T01:01:45.149Z,99722.03
2023-04-26T01:04:48.137Z,99733.44
2023-04-26T01:07:51.087Z,99735.41
2023-04-26T01:10:54.616Z,99733.78
2023-04-26T01:13:57.780Z,99744.00
2023-04-26T01:17:00.424Z,99738.38
2023-04-26T01:20:02.890Z,99742.03
2023-04-26T01:23:06.209Z,99744.66
2023-04-26T01:26:08.532Z,99747.16
2023-04-26T01:29:21.294Z,99750.91
2023-04-26T01:32:23.838Z,99755.72
2023-04-26T01:35:26.565Z,99757.03
2023-04-26T01:38:29.010Z,99761.47
2023-04-26T01:41:32.798Z,99757.37
2023-04-26T01:44:35.907Z,99770.22
2023-04-26T01:47:38.620Z,99770.56
2023-04-26T01:50:41.132Z,99769.06
2023-04-26T01:53:43.729Z,99766.59
2023-04-26T01:56:46.261Z,99776.66
2023-04-26T01:59:48.841Z,99777.47
2023-04-26T02:02:54.376Z,99774.84
2023-04-26T02:05:58.745Z,99777.31
2023-04-26T02:09:02.154Z,99773.50
2023-04-26T02:12:04.982Z,99777.97
2023-04-26T02:15:08.510Z,99782.41
2023-04-26T02:18:11.710Z,99788.37
2023-04-26T02:21:16.443Z,99780.13
2023-04-26T02:24:19.762Z,99790.66
2023-04-26T02:27:22.060Z,99782.59
2023-04-26T02:30:24.721Z,99787.87
2023-04-26T02:33:27.130Z,99786.75
2023-04-26T02:36:30.075Z,99794.13
2023-04-26T02:39:32.720Z,99791.50
2023-04-26T02:42:36.135Z,99794.31
2023-04-26T02:45:44.655Z,99794.00
2023-04-26T02:48:47.490Z,99791.16
2023-04-26T02:51:49.845Z,99786.38
2023-04-26T02:54:52.566Z,99797.13
2023-04-26T02:57:54.882Z,99806.00
2023-04-26T03:01:01.003Z,99809.47
2023-04-26T03:04:05.696Z,99806.66
2023-04-26T03:07:08.848Z,99816.72
2023-04-26T03:10:11.907Z,99835.81
2023-04-26T03:13:15.481Z,99827.41
2023-04-26T03:16:21.449Z,99840.75
2023-04-26T03:19:24.142Z,99840.19
2023-04-26T03:22:26.942Z,99844.88
2023-04-26T03:25:29.581Z,99855.09
2023-04-26T03:28:32.061Z,99847.47
2023-04-26T03:31:35.083Z,99848.44
2023-04-26T03:34:37.776Z,99856.31
2023-04-26T03:37:40.455Z,99859.91
2023-04-26T03:40:44.078Z,99866.16
2023-04-26T03:43:46.938Z,99875.81
2023-04-26T03:46:49.364Z,99870.47
2023-04-26T03:49:52.229Z,99870.31
2023-04-26T03:52:54.553Z,99864.03
2023-04-26T03:55:58.033Z,99880.06
2023-04-26T03:59:00.821Z,99884.97
2023-04-26T04:02:04.112Z,99879.03
2023-04-26T04:05:06.939Z,99887.13
2023-04-26T04:08:09.548Z,99887.69
2023-04-26T04:11:12.280Z,99888.28
2023-04-26T04:14:14.875Z,99886.41
2023-04-26T04:17:17.478Z,99900.25
2023-04-26T04:20:21.521Z,99902.28
2023-04-26T04:23:24.461Z,99900.50
2023-04-26T04:26:28.464Z,99894.09
2023-04-26T04:29:31.741Z,99881.00
2023-04-26T04:32:34.394Z,99893.22
2023-04-26T04:35:37.042Z,99906.66
2023-04-26T04:38:39.737Z,99909.31
2023-04-26T04:41:48.059Z,99924.69
2023-04-26T04:44:50.714Z,99927.19
2023-04-26T04:47:54.359Z,99932.19
2023-04-26T04:50:58.455Z,99932.59
2023-04-26T04:54:09.545Z,99938.38
2023-04-26T04:57:11.861Z,99946.78
2023-04-26T05:00:16.116Z,99948.44
2023-04-26T05:03:18.770Z,99963.06
2023-04-26T05:06:21.505Z,99956.59
2023-04-26T05:09:24.246Z,99966.19
2023-04-26T05:12:27.013Z,99962.87
2023-04-26T05:15:30.106Z,99976.25
2023-04-26T05:18:32.888Z,99973.81
2023-04-26T05:21:36.162Z,99982.84
2023-04-26T05:24:38.781Z,99985.94
2023-04-26T05:27:41.274Z,99984.97
2023-04-26T05:30:44.994Z,99974.09
2023-04-26T05:33:48.055Z,99980.59
2023-04-26T05:36:52.145Z,99980.81
2023-04-26T05:39:54.788Z,99977.72
2023-04-26T05:42:57.510Z,99989.31
2023-04-26T05:46:02.342Z,99997.03
2023-04-26T05:49:05.065Z,99995.44
2023-04-26T05:52:11.942Z,99996.91
2023-04-26T05:55:17.504Z,100000.34
2023-04-26T05:58:20.091Z,99986.56
2023-04-26T06:01:22.947Z,99997.84
2023-04-26T06:04:26.033Z,100001.00
2023-04-26T06:07:31.630Z,100016.19
2023-04-26T06:10:35.410Z,100020.50
2023-04-26T06:13:37.723Z,100014.25
2023-04-26T06:16:43.637Z,100017.59
2023-04-26T06:19:46.476Z,100026.03
2023-04-26T06:22:49.218Z,100019.34
2023-04-26T06:25:51.567Z,100029.00
2023-04-26T06:28:54.258Z,100028.41
2023-04-26T06:31:56.670Z,100027.44
2023-04-26T06:34:59.445Z,100024.00
2023-04-26T06:38:01.822Z,100020.88
2023-04-26T06:41:04.440Z,100015.75
2023-04-26T06:44:07.976Z,100021.69
2023-04-26T06:47:14.682Z,100025.97
2023-04-26T06:50:16.888Z,100029.12
2023-04-26T06:53:21.706Z,100030.87
2023-04-26T06:56:25.232Z,100028.03
2023-04-26T06:59:27.849Z,100034.72
2023-04-26T07:02:30.568Z,100033.37
2023-04-26T07:05:33.308Z,100038.28
2023-04-26T07:08:35.825Z,100045.06
2023-04-26T07:11:38.426Z,100031.78
2023-04-26T07:14:41.424Z,100047.25
2023-04-26T07:17:44.068Z,100036.56
2023-04-26T07:20:46.876Z,100046.81
2023-04-26T07:23:53.313Z,100049.34
2023-04-26T07:26:56.865Z,100037.63
2023-04-26T07:30:01.120Z,100041.41
2023-04-26T07:33:03.613Z,100059.84
2023-04-26T07:36:06.517Z,100048.75
2023-04-26T07:39:10.348Z,100067.97
2023-04-26T07:42:12.899Z,100077.87
2023-04-26T07:45:15.834Z,100083.66
2023-04-26T07:48:19.639Z,100077.44
2023-04-26T07:51:22.046Z,100079.53
2023-04-26T07:54:24.629Z,100075.34
2023-04-26T07:57:26.907Z,100081.66
2023-04-26T08:00:30.114Z,100078.63
2023-04-26T08:03:33.192Z,100083.66
2023-04-26T08:06:36.148Z,100093.25
2023-04-26T08:09:38.701Z,100092.38
2023-04-26T08:12:46.789Z,100097.41
2023-04-26T08:15:49.348Z,100091.87
2023-04-26T08:18:51.963Z,100105.41
2023-04-26T08:21:54.821Z,100101.44
2023-04-26T08:24:57.173Z,100106.81
2023-04-26T08:27:59.736Z,100105.88
2023-04-26T08:31:02.110Z,100110.50
2023-04-26T08:34:04.920Z,100110.28
2023-04-26T08:37:11.649Z,100108.25
2023-04-26T08:40:21.222Z,100127.69
2023-04-26T08:43:23.502Z,100114.25
2023-04-26T08:46:27.111Z,100121.19
2023-04-26T08:49:43.564Z,100125.22
2023-04-26T08:52:47.517Z,100123.78
2023-04-26T08:55:50.686Z,100121.81
2023-04-26T08:58:53.805Z,100122.56
2023-04-26T09:01:57.301Z,100130.94
2023-04-26T09:05:00.247Z,100126.41
2023-04-26T09:08:05.299Z,100127.88
2023-04-26T09:11:07.913Z,100136.72
2023-04-26T09:14:10.298Z,100128.87
2023-04-26T09:17:25.202Z,100127.28
2023-04-26T09:20:29.034Z,100131.97
2023-04-26T09:23:32.188Z,100122.47
2023-04-26T09:26:34.607Z,100127.09
2023-04-26T09:29:37.217Z,100123.31
2023-04-26T09:32:48.845Z,100130.78
2023-04-26T09:35:51.695Z,100130.91
2023-04-26T09:38:54.647Z,100127.38
2023-04-26T09:41:57.661Z,100128.28
2023-04-26T09:45:06.369Z,100124.69
2023-04-26T09:48:30.403Z,100119.44
2023-04-26T09:51:32.872Z,100117.78
2023-04-26T09:54:42.322Z,100114.09
2023-04-26T09:57:44.779Z,100121.91
2023-04-26T10:00:49.351Z,100128.87
2023-04-26T10:03:52.760Z,100112.63
2023-04-26T10:06:55.417Z,100117.75
2023-04-26T10:09:58.517Z,100112.81
2023-04-26T10:13:00.984Z,100121.97
2023-04-26T10:16:04.310Z,100109.56
2023-04-26T10:19:06.795Z,100123.44
2023-04-26T10:22:14.938Z,100116.78
2023-04-26T10:25:17.288Z,100112.28
2023-04-26T10:28:44.955Z,100115.19
2023-04-26T10:32:09.155Z,100120.41
2023-04-26T10:35:31.044Z,100115.69
2023-04-26T10:38:38.076Z,100113.59
2023-04-26T10:41:45.370Z,100120.28
2023-04-26T10:44:57.682Z,100120.94
2023-04-26T10:48:19.960Z,100126.09
2023-04-26T10:51:22.794Z,100127.91
2023-04-26T10:54:46.010Z,100115.91
2023-04-26T10:57:52.060Z,100119.88
2023-04-26T11:01:04.182Z,100122.78
2023-04-26T11:04:10.901Z,100119.59
2023-04-26T11:07:14.026Z,100112.34
2023-04-26T11:10:23.172Z,100114.87
2023-04-26T11:13:25.446Z,100110.59
2023-04-26T11:16:28.974Z,100109.06
2023-04-26T11:19:32.018Z,100114.53
2023-04-26T11:22:34.849Z,100114.84
2023-04-26T11:25:38.989Z,100121.16
2023-04-26T11:28:44.497Z,100109.31
2023-04-26T11:31:57.297Z,100110.91
2023-04-26T11:35:00.963Z,100130.44
2023-04-26T11:38:06.272Z,100121.22
2023-04-26T11:41:10.523Z,100137.44
2023-04-26T11:44:13.123Z,100121.84
2023-04-26T11:47:15.806Z,100129.25
2023-04-26T11:50:18.793Z,100128.09
2023-04-26T11:53:21.777Z,100127.06
2023-04-26T11:56:25.218Z,100122.25
2023-04-26T11:59:32.252Z,100114.94
2023-04-26T12:02:35.714Z,100124.00
2023-04-26T12:05:38.979Z,100121.72
2023-04-26T12:08:41.523Z,100118.34
2023-04-26T12:12:10.149Z,100124.59
2023-04-26T12:15:13.952Z,100123.84
2023-04-26T12:18:18.419Z,100127.03
2023-04-26T12:21:20.929Z,100118.75
2023-04-26T12:24:25.191Z,100138.00
2023-04-26T12:27:27.718Z,100123.69
2023-04-26T12:30:31.677Z,100131.91
2023-04-26T12:33:37.312Z,100143.06
2023-04-26T12:36:46.429Z,100137.94
2023-04-26T12:39:48.668Z,100136.03
2023-04-26T12:42:51.968Z,100128.91
2023-04-26T12:45:55.457Z,100127.63
2023-04-26T12:48:58.136Z,100128.72
2023-04-26T12:52:00.510Z,100125.16
2023-04-26T12:55:05.090Z,100136.94
2023-04-26T12:58:07.565Z,100134.84
2023-04-26T13:01:11.347Z,100146.19
2023-04-26T13:04:13.842Z,100152.47
2023-04-26T13:07:17.328Z,100151.22
2023-04-26T13:10:20.060Z,100140.78
2023-04-26T13:13:32.297Z,100144.91
2023-04-26T13:16:42.353Z,100149.41
2023-04-26T13:19:44.957Z,100153.38
2023-04-26T13:22:51.520Z,100147.78
2023-04-26T13:25:54.117Z,100156.72
2023-04-26T13:28:56.648Z,100157.53
2023-04-26T13:31:59.603Z,100154.63
2023-04-26T13:35:02.723Z,100160.44
2023-04-26T13:38:05.444Z,100160.19
2023-04-26T13:41:07.915Z,100169.41
2023-04-26T13:44:11.124Z,100156.72
2023-04-26T13:47:13.443Z,100173.63
2023-04-26T13:50:16.386Z,100165.53
2023-04-26T13:53:19.982Z,100172.50
2023-04-26T13:56:24.543Z,100180.91
2023-04-26T13:59:28.447Z,100168.91
2023-04-26T14:02:31.438Z,100183.63
2023-04-26T14:05:34.627Z,100189.97
2023-04-26T14:08:37.467Z,100182.13
2023-04-26T14:11:40.200Z,100191.72
2023-04-26T14:14:42.536Z,100183.16
2023-04-26T14:17:47.083Z,100181.84
2023-04-26T14:20:49.660Z,100179.47
2023-04-26T14:23:52.432Z,100184.31
2023-04-26T14:26:54.657Z,100180.72
2023-04-26T14:29:57.376Z,100172.22
2023-04-26T14:32:59.811Z,100190.13
2023-04-26T14:36:02.378Z,100187.16
2023-04-26T14:39:04.667Z,100184.94
2023-04-26T14:42:07.583Z,100187.50
2023-04-26T14:45:10.101Z,100195.47
2023-04-26T14:48:13.018Z,100193.37
2023-04-26T14:51:15.496Z,100192.22
2023-04-26T14:54:18.322Z,100205.25
2023-04-26T14:57:20.677Z,100194.50
2023-04-26T15:00:25.439Z,100192.44
2023-04-26T15:03:28.203Z,100206.97
2023-04-26T15:06:32.144Z,100200.97
2023-04-26T15:09:34.538Z,100193.59
2023-04-26T15:12:37.569Z,100209.38
2023-04-26T15:15:39.811Z,100206.97
2023-04-26T15:18:42.676Z,100209.13
2023-04-26T15:21:45.050Z,100219.81
2023-04-26T15:24:49.601Z,100220.31
2023-04-26T15:27:51.985Z,100218.38
2023-04-26T15:31:04.294Z,100219.31
2023-04-26T15:34:06.732Z,100224.31
2023-04-26T15:37:10.166Z,100206.63
2023-04-26T15:40:12.678Z,100216.87
2023-04-26T15:43:16.843Z,100225.38
2023-04-26T15:46:19.132Z,100217.09
2023-04-26T15:49:23.308Z,100207.56
2023-04-26T15:52:25.887Z,100209.81
2023-04-26T15:55:28.516Z,100209.44
2023-04-26T15:58:30.906Z,100220.22
2023-04-26T16:01:34.400Z,100207.41
2023-04-26T16:04:37.306Z,100213.81
2023-04-26T16:07:40.233Z,100215.38
2023-04-26T16:10:42.829Z,100216.53
2023-04-26T16:13:45.274Z,100210.00
2023-04-26T16:16:47.886Z,100213.66
2023-04-26T16:19:50.138Z,100213.87
2023-04-26T16:22:53.023Z,100223.72
2023-04-26T16:25:55.340Z,100233.69
2023-04-26T16:28:57.949Z,100238.06
2023-04-26T16:32:00.554Z,100232.94
2023-04-26T16:35:03.439Z,100234.44
2023-04-26T16:38:05.859Z,100230.53
2023-04-26T16:41:08.564Z,100245.41
2023-04-26T16:44:11.285Z,100246.28
2023-04-26T16:47:13.849Z,100240.16
2023-04-26T16:50:21.345Z,100258.72
2023-04-26T16:53:23.988Z,100248.09
2023-04-26T16:56:26.743Z,100261.06
2023-04-26T16:59:29.390Z,100260.75
2023-04-26T17:02:32.117Z,100267.13
2023-04-26T17:05:38.776Z,100258.69
2023-04-26T17:08:41.345Z,100256.88
2023-04-26T17:11:44.859Z,100261.22
2023-04-26T17:14:47.202Z,100275.47
2023-04-26T17:17:50.752Z,100275.97
2023-04-26T17:20:53.666Z,100268.88
2023-04-26T17:23:56.173Z,100277.97
2023-04-26T17:26:59.820Z,100275.50
2023-04-26T17:30:02.491Z,100280.16
2023-04-26T17:33:07.407Z,100279.47
2023-04-26T17:36:10.285Z,100285.44
2023-04-26T17:39:12.774Z,100289.94
2023-04-26T17:42:15.376Z,100290.75
2023-04-26T17:45:17.817Z,100289.59
2023-04-26T17:48:20.303Z,100301.19
2023-04-26T17:51:22.860Z,100302.34
2023-04-26T17:54:25.468Z,100306.31
2023-04-26T17:57:27.642Z,100320.75
2023-04-26T18:00:30.177Z,100318.59
2023-04-26T18:03:35.815Z,100326.72
2023-04-26T18:06:38.273Z,100325.84
2023-04-26T18:09:41.601Z,100321.22
2023-04-26T18:12:44.024Z,100320.88
2023-04-26T18:15:47.059Z,100319.53
2023-04-26T18:18:49.786Z,100327.00
2023-04-26T18:21:53.599Z,100331.25
2023-04-26T18:24:55.885Z,100334.06
2023-04-26T18:27:58.457Z,100338.16
2023-04-26T18:31:00.963Z,100340.66
2023-04-26T18:34:03.608Z,100339.59
2023-04-26T18:37:06.143Z,100349.84
2023-04-26T18:40:09.508Z,100351.66
2023-04-26T18:43:12.154Z,100355.41
2023-04-26T18:46:14.764Z,100356.44
2023-04-26T18:49:17.454Z,100364.88
2023-04-26T18:52:20.212Z,100373.91
2023-04-26T18:55:22.954Z,100373.63
2023-04-26T18:58:25.902Z,100371.59
2023-04-26T19:01:28.601Z,100377.66
2023-04-26T19:04:31.351Z,100383.37
2023-04-26T19:07:33.719Z,100390.94
2023-04-26T19:10:36.878Z,100384.81
2023-04-26T19:13:42.790Z,100382.41
2023-04-26T19:16:45.384Z,100382.22
2023-04-26T19:19:47.856Z,100384.50
2023-04-26T19:22:50.880Z,100380.66
2023-04-26T19:25:53.338Z,100391.59
2023-04-26T19:28:56.272Z,100381.03
2023-04-26T19:32:00.139Z,100388.41
2023-04-26T19:35:04.830Z,100389.37
2023-04-26T19:38:07.259Z,100384.38
2023-04-26T19:41:09.863Z,100382.91
2023-04-26T19:44:12.923Z,100395.97
2023-04-26T19:47:16.095Z,100402.50
2023-04-26T19:50:18.556Z,100396.50
2023-04-26T19:53:21.178Z,100405.66
2023-04-26T19:56:24.058Z,100397.53
2023-04-26T19:59:27.373Z,100392.59
2023-04-26T20:02:29.962Z,100403.78
2023-04-26T20:05:33.773Z,100397.91
2023-04-26T20:08:36.332Z,100405.00
2023-04-26T20:11:39.380Z,100417.44
2023-04-26T20:14:41.760Z,100418.94
2023-04-26T20:17:44.474Z,100420.59
2023-04-26T20:20:48.069Z,100425.66
2023-04-26T20:23:50.765Z,100426.31
2023-04-26T20:26:53.551Z,100425.69
2023-04-26T20:29:56.485Z,100427.09
2023-04-26T20:32:59.614Z,100432.12
2023-04-26T20:36:02.317Z,100430.50
2023-04-26T20:39:05.248Z,100435.59
2023-04-26T20:42:18.479Z,100443.56
2023-04-26T20:45:20.706Z,100442.06
2023-04-26T20:48:24.186Z,100446.91
2023-04-26T20:51:26.886Z,100446.69
2023-04-26T20:54:29.509Z,100447.56
2023-04-26T20:57:31.859Z,100431.91
2023-04-26T21:00:34.635Z,100441.50
2023-04-26T21:03:39.168Z,100446.34
2023-04-26T21:06:41.962Z,100448.97
2023-04-26T21:09:44.272Z,100449.00
2023-04-26T21:12:47.066Z,100455.50
2023-04-26T21:15:49.429Z,100463.00
2023-04-26T21:18:52.564Z,100458.69
2023-04-26T21:21:54.862Z,100467.13
2023-04-26T21:24:57.672Z,100465.03
2023-04-26T21:28:01.227Z,100467.19
2023-04-26T21:31:05.491Z,100465.66
2023-04-26T21:34:07.784Z,100472.03
2023-04-26T21:37:10.994Z,100471.47
2023-04-26T21:40:13.552Z,100466.31
2023-04-26T21:43:20.124Z,100466.28
2023-04-26T21:46:22.435Z,100476.12
2023-04-26T21:49:25.944Z,100478.59
2023-04-26T21:52:28.619Z,100478.59
2023-04-26T21:55:31.409Z,100481.44
2023-04-26T21:58:33.984Z,100479.91
2023-04-26T22:01:36.638Z,100482.50
2023-04-26T22:04:39.271Z,100475.41
2023-04-26T22:07:41.702Z,100480.34
2023-04-26T22:10:44.386Z,100483.22
2023-04-26T22:13:46.892Z,100487.09
2023-04-26T22:16:49.562Z,100490.44
2023-04-26T22:19:52.230Z,100493.63
2023-04-26T22:22:54.931Z,100491.16
2023-04-26T22:25:59.575Z,100496.34
2023-04-26T22:29:02.714Z,100498.28
2023-04-26T22:32:05.525Z,100502.94
2023-04-26T22:35:08.220Z,100503.53
2023-04-26T22:38:10.612Z,100512.34
2023-04-26T22:41:13.329Z,100512.84
2023-04-26T22:44:15.776Z,100513.34
2023-04-26T22:47:18.654Z,100516.50
2023-04-26T22:50:21.607Z,100513.56
2023-04-26T22:53:24.215Z,100515.47
2023-04-26T22:56:26.916Z,100517.72
2023-04-26T22:59:29.707Z,100520.03
2023-04-26T23:02:32.541Z,100521.63
2023-04-26T23:05:36.493Z,100525.91
2023-04-26T23:08:38.883Z,100520.47
2023-04-26T23:11:41.536Z,100525.97
2023-04-26T23:14:43.839Z,100537.34
2023-04-26T23:17:46.704Z,100529.22
2023-04-26T23:20:49.007Z,100540.69
2023-04-26T23:23:51.803Z,100535.94
2023-04-26T23:26:54.107Z,100552.88
2023-04-26T23:29:59.110Z,100543.69
2023-04-26T23:33:01.721Z,100554.91
2023-04-26T23:36:04.562Z,100553.59
2023-04-26T23:39:07.228Z,100555.13
2023-04-26T23:42:09.704Z,100543.47
2023-04-26T23:45:12.002Z,100546.25
2023-04-26T23:48:15.320Z,100554.06
2023-04-26T23:51:17.707Z,100555.56
2023-04-26T23:54:20.400Z,100552.47
2023-04-26T23:57:22.797Z,100543.75
